createdAt,value
2019-02-04T00:00:40.701Z,14.17
2019-02-04T00:03:15.700Z,10.63
2019-02-04T00:05:45.065Z,8.73
2019-02-04T00:08:15.358Z,10.17
2019-02-04T00:10:45.019Z,9.80
2019-02-04T00:13:14.317Z,8.80
2019-02-04T00:15:43.596Z,9.27
2019-02-04T00:18:13.061Z,10.57
2019-02-04T00:20:42.341Z,7.53
2019-02-04T00:23:11.638Z,8.50
2019-02-04T00:25:41.194Z,9.10
2019-02-04T00:28:10.478Z,9.90
2019-02-04T00:30:39.838Z,10.80
2019-02-04T00:33:09.133Z,8.40
2019-02-04T00:35:39.439Z,10.93
2019-02-04T00:38:08.852Z,8.93
2019-02-04T00:40:38.254Z,9.50
2019-02-04T00:43:07.569Z,8.40
2019-02-04T00:45:36.845Z,10.80
2019-02-04T00:48:06.139Z,9.23
2019-02-04T00:50:35.418Z,10.00
2019-02-04T00:53:05.183Z,9.33
2019-02-04T00:55:35.453Z,10.73
2019-02-04T00:58:04.888Z,10.93
2019-02-04T01:00:34.331Z,12.87
2019-02-04T01:03:04.436Z,9.37
2019-02-04T01:05:33.741Z,10.67
2019-02-04T01:08:03.685Z,10.47
2019-02-04T01:10:32.982Z,10.67
2019-02-04T01:13:02.274Z,14.67
2019-02-04T01:15:31.615Z,6.90
2019-02-04T01:18:00.905Z,7.97
2019-02-04T01:20:30.819Z,9.37
2019-02-04T01:23:00.115Z,8.03
2019-02-04T01:25:29.392Z,9.37
2019-02-04T01:27:58.682Z,7.87
2019-02-04T01:30:28.026Z,6.60
2019-02-04T01:32:57.385Z,8.60
2019-02-04T01:35:27.047Z,7.60
2019-02-04T01:37:56.422Z,8.00
2019-02-04T01:40:27.290Z,10.33
2019-02-04T01:42:56.685Z,10.17
2019-02-04T01:45:25.974Z,9.23
2019-02-04T01:47:55.250Z,10.20
2019-02-04T01:50:24.830Z,11.30
2019-02-04T01:52:54.109Z,9.63
2019-02-04T01:55:23.401Z,6.73
2019-02-04T01:57:54.534Z,8.17
2019-02-04T02:00:32.447Z,7.80
2019-02-04T02:03:01.715Z,8.73
2019-02-04T02:05:31.397Z,10.73
2019-02-04T02:08:00.679Z,9.40
2019-02-04T02:10:29.958Z,9.70
2019-02-04T02:12:59.320Z,8.87
2019-02-04T02:15:28.607Z,8.23
2019-02-04T02:17:57.890Z,10.10
2019-02-04T02:20:28.420Z,9.20
2019-02-04T02:22:57.761Z,9.63
2019-02-04T02:25:27.086Z,8.73
2019-02-04T02:27:56.757Z,10.07
2019-02-04T02:30:31.428Z,8.77
2019-02-04T02:33:00.715Z,10.07
2019-02-04T02:35:30.015Z,8.63
2019-02-04T02:37:59.288Z,8.43
2019-02-04T02:40:31.119Z,7.70
2019-02-04T02:43:00.778Z,8.80
2019-02-04T02:45:31.124Z,12.43
2019-02-04T02:48:00.494Z,9.87
2019-02-04T02:50:29.783Z,9.67
2019-02-04T02:52:59.226Z,10.67
2019-02-04T02:55:28.519Z,9.67
2019-02-04T02:57:58.124Z,8.80
2019-02-04T03:00:28.350Z,11.57
2019-02-04T03:02:57.633Z,9.63
2019-02-04T03:05:26.927Z,9.10
2019-02-04T03:07:56.369Z,8.63
2019-02-04T03:10:30.454Z,8.73
2019-02-04T03:12:59.748Z,10.53
2019-02-04T03:15:29.104Z,10.13
2019-02-04T03:17:58.382Z,8.83
2019-02-04T03:20:27.704Z,12.43
2019-02-04T03:22:57.048Z,11.33
2019-02-04T03:25:26.708Z,12.57
2019-02-04T03:27:55.999Z,9.93
2019-02-04T03:30:27.720Z,7.93
2019-02-04T03:32:57.045Z,11.73
2019-02-04T03:35:26.384Z,9.90
2019-02-04T03:37:55.749Z,10.63
2019-02-04T03:40:29.615Z,14.10
2019-02-04T03:42:58.925Z,9.27
2019-02-04T03:45:28.586Z,10.00
2019-02-04T03:48:06.123Z,8.13
2019-02-04T03:50:28.872Z,11.70
2019-02-04T03:52:58.174Z,12.07
2019-02-04T03:55:27.580Z,11.80
2019-02-04T03:57:57.110Z,13.73
2019-02-04T04:00:34.382Z,11.73
2019-02-04T04:03:03.695Z,11.67
2019-02-04T04:05:32.979Z,12.60
2019-02-04T04:08:02.354Z,12.63
2019-02-04T04:10:31.783Z,10.00
2019-02-04T04:13:02.142Z,11.77
2019-02-04T04:15:31.618Z,12.47
2019-02-04T04:18:01.189Z,9.07
2019-02-04T04:20:30.537Z,9.97
2019-02-04T04:22:59.838Z,12.90
2019-02-04T04:25:30.762Z,12.53
2019-02-04T04:28:00.076Z,13.93
2019-02-04T04:30:29.642Z,14.00
2019-02-04T04:32:59.208Z,10.00
2019-02-04T04:35:28.585Z,13.30
2019-02-04T04:37:57.901Z,11.60
2019-02-04T04:40:27.295Z,11.73
2019-02-04T04:42:56.582Z,12.80
2019-02-04T04:45:27.013Z,10.67
2019-02-04T04:47:56.564Z,13.10
2019-02-04T04:50:25.899Z,10.47
2019-02-04T04:52:55.190Z,13.93
2019-02-04T04:55:26.167Z,10.73
2019-02-04T04:57:55.703Z,13.00
2019-02-04T05:00:28.543Z,10.90
2019-02-04T05:02:58.102Z,12.13
2019-02-04T05:05:28.487Z,14.77
2019-02-04T05:07:57.780Z,14.07
2019-02-04T05:10:27.125Z,14.93
2019-02-04T05:12:56.432Z,15.40
2019-02-04T05:15:27.358Z,16.67
2019-02-04T05:17:56.775Z,12.73
2019-02-04T05:20:26.133Z,14.37
2019-02-04T05:22:55.430Z,14.20
2019-02-04T05:25:24.750Z,15.93
2019-02-04T05:27:54.403Z,15.33
2019-02-04T05:30:25.339Z,15.70
2019-02-04T05:32:54.682Z,22.33
2019-02-04T05:35:24.016Z,27.47
2019-02-04T05:37:53.361Z,16.33
2019-02-04T05:40:22.723Z,17.77
2019-02-04T05:42:52.019Z,18.77
2019-02-04T05:45:21.606Z,15.13
2019-02-04T05:47:50.903Z,18.73
2019-02-04T05:50:20.660Z,16.37
2019-02-04T05:52:50.190Z,21.13
2019-02-04T05:55:21.225Z,20.57
2019-02-04T05:57:50.579Z,20.27
2019-02-04T06:00:24.624Z,19.53
2019-02-04T06:02:54.179Z,16.33
2019-02-04T06:05:23.718Z,19.07
2019-02-04T06:07:52.996Z,20.73
2019-02-04T06:10:22.282Z,19.03
2019-02-04T06:12:51.609Z,19.43
2019-02-04T06:15:21.103Z,19.93
2019-02-04T06:17:50.386Z,19.67
2019-02-04T06:20:24.209Z,18.90
2019-02-04T06:22:53.870Z,17.83
2019-02-04T06:25:23.241Z,19.10
2019-02-04T06:27:52.523Z,15.93
2019-02-04T06:30:21.820Z,17.93
2019-02-04T06:32:51.094Z,18.67
2019-02-04T06:35:20.443Z,17.53
2019-02-04T06:37:50.167Z,15.90
2019-02-04T06:40:19.476Z,16.97
2019-02-04T06:42:48.742Z,16.07
2019-02-04T06:45:18.866Z,19.73
2019-02-04T06:47:48.153Z,120.17
2019-02-04T06:50:21.008Z,70.83
2019-02-04T06:52:50.304Z,27.50
2019-02-04T06:55:25.071Z,20.80
2019-02-04T06:57:54.354Z,19.60
2019-02-04T07:00:23.648Z,24.10
2019-02-04T07:02:53.002Z,22.07
2019-02-04T07:05:22.471Z,25.77
2019-02-04T07:07:51.755Z,25.60
2019-02-04T07:10:23.759Z,19.33
2019-02-04T07:12:53.037Z,23.63
2019-02-04T07:15:22.337Z,20.13
2019-02-04T07:17:51.609Z,15.03
2019-02-04T07:20:25.306Z,17.87
2019-02-04T07:22:54.603Z,25.17
2019-02-04T07:25:25.334Z,34.77
2019-02-04T07:27:54.617Z,19.17
2019-02-04T07:30:28.625Z,18.53
2019-02-04T07:32:57.962Z,18.27
2019-02-04T07:35:27.351Z,16.87
2019-02-04T07:37:56.644Z,17.47
2019-02-04T07:40:30.850Z,19.63
2019-02-04T07:43:00.266Z,18.77
2019-02-04T07:45:29.721Z,21.90
2019-02-04T07:47:59.788Z,22.63
2019-02-04T07:50:30.134Z,21.30
2019-02-04T07:52:59.515Z,17.30
2019-02-04T07:55:28.860Z,21.00
2019-02-04T07:57:58.166Z,22.83
2019-02-04T08:00:30.530Z,22.33
2019-02-04T08:02:59.909Z,24.77
2019-02-04T08:05:29.824Z,21.10
2019-02-04T08:07:59.234Z,19.60
2019-02-04T08:10:28.530Z,24.30
2019-02-04T08:13:01.600Z,21.10
2019-02-04T08:15:34.015Z,25.20
2019-02-04T08:18:03.471Z,23.50
2019-02-04T08:20:32.753Z,22.13
2019-02-04T08:23:02.122Z,25.23
2019-02-04T08:25:31.487Z,23.93
2019-02-04T08:28:00.777Z,24.70
2019-02-04T08:30:37.954Z,35.07
2019-02-04T08:33:06.114Z,39.63
2019-02-04T08:35:35.423Z,28.40
2019-02-04T08:38:05.249Z,24.37
2019-02-04T08:40:34.889Z,24.80
2019-02-04T08:43:04.512Z,23.23
2019-02-04T08:45:33.861Z,24.20
2019-02-04T08:48:03.154Z,21.83
2019-02-04T08:50:32.521Z,31.30
2019-02-04T08:53:02.058Z,27.53
2019-02-04T08:55:31.343Z,25.77
2019-02-04T08:58:00.726Z,27.90
2019-02-04T09:00:30.002Z,27.53
2019-02-04T09:02:59.302Z,27.37
2019-02-04T09:05:28.587Z,25.47
2019-02-04T09:07:57.872Z,28.63
2019-02-04T09:10:31.993Z,26.57
2019-02-04T09:13:01.697Z,26.17
2019-02-04T09:15:31.117Z,28.40
2019-02-04T09:18:00.758Z,29.53
2019-02-04T09:20:30.112Z,26.27
2019-02-04T09:23:00.278Z,25.90
2019-02-04T09:25:29.558Z,25.77
2019-02-04T09:27:59.118Z,22.77
2019-02-04T09:30:28.992Z,24.73
2019-02-04T09:32:59.606Z,22.87
2019-02-04T09:35:29.164Z,20.87
2019-02-04T09:37:58.530Z,22.27
2019-02-04T09:40:31.295Z,22.13
2019-02-04T09:43:00.605Z,26.00
2019-02-04T09:45:29.890Z,36.87
2019-02-04T09:47:59.182Z,24.53
2019-02-04T09:50:37.492Z,26.83
2019-02-04T09:53:07.337Z,23.47
2019-02-04T09:55:38.940Z,22.53
2019-02-04T09:58:08.498Z,23.63
2019-02-04T10:00:38.541Z,21.50
2019-02-04T10:03:08.394Z,20.87
2019-02-04T10:05:38.185Z,33.40
2019-02-04T10:08:08.063Z,20.57
2019-02-04T10:10:37.368Z,20.37
2019-02-04T10:13:06.952Z,25.80
2019-02-04T10:15:41.952Z,24.63
2019-02-04T10:18:12.266Z,19.93
2019-02-04T10:20:42.013Z,19.83
2019-02-04T10:23:11.493Z,15.10
2019-02-04T10:25:42.898Z,15.47
2019-02-04T10:28:14.131Z,15.77
2019-02-04T10:30:43.931Z,17.17
2019-02-04T10:33:13.738Z,17.40
2019-02-04T10:35:43.198Z,19.73
2019-02-04T10:38:12.595Z,17.33
2019-02-04T10:40:41.970Z,14.80
2019-02-04T10:43:11.303Z,22.87
2019-02-04T10:45:40.720Z,15.63
2019-02-04T10:48:10.443Z,15.23
2019-02-04T10:50:46.155Z,12.47
2019-02-04T10:53:12.921Z,13.80
2019-02-04T10:55:42.586Z,13.10
2019-02-04T10:58:13.170Z,14.83
2019-02-04T11:00:42.910Z,13.97
2019-02-04T11:03:12.255Z,17.53
2019-02-04T11:05:43.189Z,11.37
2019-02-04T11:08:14.122Z,19.47
2019-02-04T11:10:43.649Z,12.07
2019-02-04T11:13:17.026Z,12.57
2019-02-04T11:15:47.477Z,12.20
2019-02-04T11:18:17.460Z,14.50
2019-02-04T11:20:57.887Z,10.30
2019-02-04T11:23:18.261Z,12.10
2019-02-04T11:25:47.858Z,10.60
2019-02-04T11:28:17.661Z,9.53
2019-02-04T11:30:50.156Z,9.80
2019-02-04T11:33:19.538Z,8.50
2019-02-04T11:35:49.072Z,9.83
2019-02-04T11:38:18.458Z,7.33
2019-02-04T11:40:47.842Z,7.00
2019-02-04T11:43:18.126Z,6.70
2019-02-04T11:45:47.543Z,8.50
2019-02-04T11:48:17.234Z,6.70
2019-02-04T11:50:46.518Z,6.30
2019-02-04T11:53:15.801Z,8.30
2019-02-04T11:55:45.094Z,6.87
2019-02-04T11:58:16.011Z,5.23
2019-02-04T12:00:45.382Z,6.80
2019-02-04T12:03:15.017Z,5.07
2019-02-04T12:05:44.318Z,4.00
2019-02-04T12:08:13.672Z,3.93
2019-02-04T12:10:46.659Z,20.27
2019-02-04T12:13:15.960Z,6.53
2019-02-04T12:15:45.237Z,6.13
2019-02-04T12:18:14.541Z,20.00
2019-02-04T12:20:43.903Z,13.37
2019-02-04T12:23:13.333Z,5.73
2019-02-04T12:25:42.646Z,22.63
2019-02-04T12:28:12.115Z,26.57
2019-02-04T12:30:43.036Z,12.53
2019-02-04T12:33:14.556Z,8.27
2019-02-04T12:35:43.857Z,25.73
2019-02-04T12:38:13.676Z,11.67
2019-02-04T12:40:42.942Z,13.00
2019-02-04T12:43:13.214Z,12.23
2019-02-04T12:45:43.939Z,37.23
2019-02-04T12:48:13.304Z,11.03
2019-02-04T12:50:42.609Z,6.40
2019-02-04T12:53:12.508Z,8.33
2019-02-04T12:55:41.859Z,17.80
2019-02-04T12:58:11.229Z,9.10
2019-02-04T13:00:40.652Z,4.77
2019-02-04T13:03:09.951Z,5.37
2019-02-04T13:05:42.298Z,4.53
2019-02-04T13:08:12.622Z,5.47
2019-02-04T13:10:41.991Z,6.33
2019-02-04T13:13:14.127Z,4.03
2019-02-04T13:15:43.484Z,5.93
2019-02-04T13:18:12.846Z,4.60
2019-02-04T13:20:42.603Z,5.40
2019-02-04T13:23:12.238Z,3.87
2019-02-04T13:25:41.513Z,4.33
2019-02-04T13:28:13.165Z,8.17
2019-02-04T13:30:48.173Z,4.73
2019-02-04T13:33:17.980Z,6.30
2019-02-04T13:35:47.687Z,10.00
2019-02-04T13:38:17.007Z,5.60
2019-02-04T13:40:46.284Z,6.50
2019-02-04T13:43:15.611Z,7.03
2019-02-04T13:45:45.093Z,6.77
2019-02-04T13:48:14.914Z,5.73
2019-02-04T13:50:44.215Z,4.17
2019-02-04T13:53:13.587Z,4.90
2019-02-04T13:55:43.074Z,6.77
2019-02-04T13:58:12.451Z,7.03
2019-02-04T14:00:41.779Z,19.70
2019-02-04T14:03:11.061Z,5.60
2019-02-04T14:05:40.384Z,9.80
2019-02-04T14:08:09.767Z,10.60
2019-02-04T14:10:41.386Z,6.10
2019-02-04T14:13:10.870Z,10.87
2019-02-04T14:15:40.787Z,8.77
2019-02-04T14:18:10.411Z,5.63
2019-02-04T14:20:39.703Z,12.53
2019-02-04T14:23:09.119Z,4.47
2019-02-04T14:25:38.492Z,5.93
2019-02-04T14:28:07.862Z,5.63
2019-02-04T14:30:38.595Z,4.47
2019-02-04T14:33:07.952Z,8.60
2019-02-04T14:35:37.308Z,4.23
2019-02-04T14:38:07.044Z,5.17
2019-02-04T14:40:36.683Z,4.57
2019-02-04T14:43:12.113Z,8.30
2019-02-04T14:46:08.843Z,10.73
2019-02-04T14:49:01.758Z,4.90
2019-02-04T14:51:49.282Z,7.77
2019-02-04T14:54:55.150Z,28.50
2019-02-04T14:57:30.274Z,18.70
2019-02-04T15:00:02.620Z,7.33
2019-02-04T15:02:54.559Z,5.13
2019-02-04T15:05:42.079Z,22.77
2019-02-04T15:08:36.186Z,41.23
2019-02-04T15:11:08.563Z,12.60
2019-02-04T15:13:49.446Z,8.90
2019-02-04T15:16:27.755Z,5.77
2019-02-04T15:19:19.733Z,24.60
2019-02-04T15:22:04.292Z,28.90
2019-02-04T15:24:53.190Z,10.83
2019-02-04T15:27:37.436Z,9.33
2019-02-04T15:30:12.538Z,9.00
2019-02-04T15:32:53.847Z,7.93
2019-02-04T15:35:35.190Z,9.87
2019-02-04T15:38:18.902Z,12.13
2019-02-04T15:41:06.368Z,9.93
2019-02-04T15:43:47.795Z,10.23
2019-02-04T15:46:25.805Z,11.60
2019-02-04T15:49:00.781Z,7.50
2019-02-04T15:51:33.210Z,8.73
2019-02-04T15:54:02.588Z,9.07
2019-02-04T15:56:32.817Z,8.20
2019-02-04T15:59:02.101Z,9.77
2019-02-04T16:01:31.381Z,5.53
2019-02-04T16:04:03.812Z,4.57
2019-02-04T16:06:33.282Z,6.63
2019-02-04T16:09:02.580Z,9.40
2019-02-04T16:11:33.018Z,4.40
2019-02-04T16:14:02.318Z,8.07
2019-02-04T16:16:31.599Z,6.30
2019-02-04T16:19:00.908Z,7.30
2019-02-04T16:21:30.194Z,7.37
2019-02-04T16:23:59.483Z,7.30
2019-02-04T16:26:28.754Z,5.70
2019-02-04T16:28:58.275Z,5.70
2019-02-04T16:31:27.623Z,7.10
2019-02-04T16:33:56.917Z,6.77
2019-02-04T16:36:26.211Z,5.20
2019-02-04T16:38:55.684Z,16.93
2019-02-04T16:41:25.134Z,9.87
2019-02-04T16:43:54.471Z,5.30
2019-02-04T16:46:23.847Z,10.30
2019-02-04T16:48:53.160Z,9.57
2019-02-04T16:51:22.549Z,7.93
2019-02-04T16:53:51.848Z,10.57
2019-02-04T16:56:21.138Z,12.53
2019-02-04T16:58:50.474Z,15.60
2019-02-04T17:01:19.842Z,14.13
2019-02-04T17:03:49.204Z,15.27
2019-02-04T17:06:18.548Z,12.30
2019-02-04T17:08:47.842Z,17.77
2019-02-04T17:11:17.135Z,23.33
2019-02-04T17:13:46.667Z,15.53
2019-02-04T17:16:15.975Z,15.50
2019-02-04T17:18:45.262Z,14.33
2019-02-04T17:21:14.587Z,12.87
2019-02-04T17:23:43.858Z,9.00
2019-02-04T17:26:13.226Z,10.97
2019-02-04T17:28:42.518Z,19.97
2019-02-04T17:31:11.826Z,15.87
2019-02-04T17:33:41.117Z,13.20
2019-02-04T17:36:10.866Z,8.27
2019-02-04T17:38:40.322Z,12.87
2019-02-04T17:41:09.898Z,14.03
2019-02-04T17:43:39.261Z,12.53
2019-02-04T17:46:08.778Z,10.63
2019-02-04T17:48:38.060Z,8.90
2019-02-04T17:51:07.368Z,11.47
2019-02-04T17:53:36.637Z,8.47
2019-02-04T17:56:06.438Z,18.27
2019-02-04T17:58:35.869Z,16.50
2019-02-04T18:01:06.045Z,8.47
2019-02-04T18:03:35.482Z,10.97
2019-02-04T18:06:04.930Z,7.40
2019-02-04T18:08:34.277Z,9.17
2019-02-04T18:11:04.606Z,10.37
2019-02-04T18:13:33.986Z,10.77
2019-02-04T18:16:03.389Z,11.50
2019-02-04T18:18:33.085Z,8.87
2019-02-04T18:21:02.464Z,10.13
2019-02-04T18:23:31.891Z,12.30
2019-02-04T18:26:01.244Z,13.93
2019-02-04T18:28:30.543Z,11.07
2019-02-04T18:30:59.875Z,14.10
2019-02-04T18:33:29.433Z,11.60
2019-02-04T18:35:58.736Z,14.30
2019-02-04T18:38:28.022Z,18.60
2019-02-04T18:40:57.699Z,10.13
2019-02-04T18:43:26.972Z,9.30
2019-02-04T18:45:56.262Z,10.13
2019-02-04T18:48:25.913Z,8.90
2019-02-04T18:50:55.217Z,10.83
2019-02-04T18:53:24.502Z,7.50
2019-02-04T18:55:53.830Z,8.03
2019-02-04T18:58:23.120Z,7.67
2019-02-04T19:00:52.403Z,9.50
2019-02-04T19:03:21.706Z,8.33
2019-02-04T19:05:51.063Z,9.07
2019-02-04T19:08:21.340Z,9.80
2019-02-04T19:10:50.732Z,9.43
2019-02-04T19:13:20.107Z,9.43
2019-02-04T19:15:49.382Z,11.37
2019-02-04T19:18:18.946Z,10.80
2019-02-04T19:20:48.350Z,12.07
2019-02-04T19:23:17.646Z,13.60
2019-02-04T19:25:46.934Z,10.83
2019-02-04T19:28:16.248Z,10.03
2019-02-04T19:30:48.605Z,7.97
2019-02-04T19:33:17.930Z,6.53
2019-02-04T19:35:47.218Z,8.17
2019-02-04T19:38:16.527Z,9.03
2019-02-04T19:40:45.804Z,9.20
2019-02-04T19:43:15.526Z,10.60
2019-02-04T19:45:44.796Z,9.87
2019-02-04T19:48:14.094Z,8.90
2019-02-04T19:50:43.366Z,8.83
2019-02-04T19:53:12.649Z,17.33
2019-02-04T19:55:41.941Z,23.07
2019-02-04T19:58:11.626Z,16.30
2019-02-04T20:00:40.908Z,11.90
2019-02-04T20:03:10.294Z,10.90
2019-02-04T20:05:39.639Z,9.83
2019-02-04T20:08:09.070Z,12.67
2019-02-04T20:10:38.505Z,11.13
2019-02-04T20:13:08.223Z,11.60
2019-02-04T20:15:37.568Z,9.40
2019-02-04T20:18:07.044Z,13.27
2019-02-04T20:20:36.319Z,10.33
2019-02-04T20:23:05.762Z,10.40
2019-02-04T20:25:35.750Z,31.10
2019-02-04T20:28:07.339Z,26.57
2019-02-04T20:30:45.742Z,26.67
2019-02-04T20:33:10.843Z,18.67
2019-02-04T20:35:40.402Z,14.77
2019-02-04T20:38:10.849Z,15.53
2019-02-04T20:40:40.225Z,15.63
2019-02-04T20:43:09.828Z,12.33
2019-02-04T20:45:39.227Z,28.40
2019-02-04T20:48:11.063Z,21.60
2019-02-04T20:50:43.447Z,13.50
2019-02-04T20:53:12.737Z,11.67
2019-02-04T20:55:42.408Z,12.97
2019-02-04T20:58:12.749Z,10.73
2019-02-04T21:00:43.054Z,35.83
2019-02-04T21:03:12.414Z,47.70
2019-02-04T21:05:41.722Z,15.63
2019-02-04T21:08:12.013Z,14.83
2019-02-04T21:10:41.478Z,34.57
2019-02-04T21:13:10.774Z,25.13
2019-02-04T21:15:40.062Z,17.50
2019-02-04T21:18:09.342Z,14.87
2019-02-04T21:20:38.643Z,11.23
2019-02-04T21:23:07.949Z,12.13
2019-02-04T21:25:37.408Z,12.00
2019-02-04T21:28:06.686Z,12.10
2019-02-04T21:30:38.518Z,11.53
2019-02-04T21:33:08.144Z,15.40
2019-02-04T21:35:37.548Z,11.07
2019-02-04T21:38:06.879Z,13.03
2019-02-04T21:40:36.356Z,12.73
2019-02-04T21:43:05.796Z,10.40
2019-02-04T21:45:35.160Z,11.03
2019-02-04T21:48:05.076Z,11.73
2019-02-04T21:50:34.366Z,11.13
2019-02-04T21:53:03.647Z,13.40
2019-02-04T21:55:32.986Z,41.33
2019-02-04T21:58:02.272Z,25.90
2019-02-04T22:00:39.072Z,33.83
2019-02-04T22:03:10.002Z,31.20
2019-02-04T22:05:39.306Z,24.27
2019-02-04T22:08:08.663Z,19.27
2019-02-04T22:10:39.002Z,18.73
2019-02-04T22:13:08.298Z,20.03
2019-02-04T22:15:38.222Z,18.67
2019-02-04T22:18:07.803Z,16.23
2019-02-04T22:20:37.546Z,21.50
2019-02-04T22:23:06.937Z,18.00
2019-02-04T22:25:36.258Z,13.87
2019-02-04T22:28:05.926Z,15.67
2019-02-04T22:30:36.365Z,12.10
2019-02-04T22:33:05.823Z,13.27
2019-02-04T22:35:35.729Z,17.37
2019-02-04T22:38:05.178Z,18.27
2019-02-04T22:40:34.595Z,16.97
2019-02-04T22:43:03.899Z,16.70
2019-02-04T22:45:33.198Z,16.87
2019-02-04T22:48:02.794Z,13.87
2019-02-04T22:50:32.311Z,17.93
2019-02-04T22:53:02.634Z,18.80
2019-02-04T22:55:32.817Z,13.13
2019-02-04T22:58:02.513Z,16.20
2019-02-04T23:00:51.355Z,15.67
2019-02-04T23:03:24.129Z,15.77
2019-02-04T23:05:53.423Z,20.53
2019-02-04T23:08:22.758Z,19.10
2019-02-04T23:10:52.124Z,20.30
2019-02-04T23:13:21.548Z,24.23
2019-02-04T23:15:53.894Z,18.53
2019-02-04T23:18:22.006Z,14.07
2019-02-04T23:20:51.298Z,14.77
2019-02-04T23:23:20.772Z,12.93
2019-02-04T23:25:50.019Z,14.23
2019-02-04T23:28:19.310Z,17.23
2019-02-04T23:30:48.962Z,17.07
2019-02-04T23:33:18.472Z,18.97
2019-02-04T23:35:47.767Z,14.43
2019-02-04T23:38:17.064Z,16.20
2019-02-04T23:40:46.512Z,19.07
2019-02-04T23:43:15.802Z,15.60
2019-02-04T23:45:45.407Z,17.70
2019-02-04T23:48:14.710Z,16.77
2019-02-04T23:50:44.000Z,17.63
2019-02-04T23:53:13.291Z,15.90
2019-02-04T23:55:53.991Z,16.97
2019-02-04T23:58:13.615Z,15.40
